Terminal Aerodrome Forecast
Issued by NWS Wilmington, NC

Home | Current Version | Previous Version | Text Only | Print | Product List | Glossary On
Versions: 1 2 3 4 5 6 7 8 9 10 11 12 13 14 15 16 17 18
703
FTUS42 KILM 221129
TAFMYR
TAF
KMYR 221129Z 2212/2312 23005KT P6SM SCT015 SCT080 BKN200
      TEMPO 2214/2216 BKN020
     FM221600 19010KT P6SM SCT030 SCT120 BKN200
     FM230000 21011KT P6SM BKN150
     FM230900 23003KT 5SM BR BKN014=

USA.gov is the U.S. government's official web portal to all federal, state and local government web resources and services.